sensor_id;sensor_type;location;lat;lon;timestamp;P1;durP1;ratioP1;P2;durP2;ratioP2
37777;SDS011;23615;51.506;7.678;2024-01-30T00:00:28;4.63;;;3.47;;
37777;SDS011;23615;51.506;7.678;2024-01-30T00:02:54;5.00;;;4.05;;
37777;SDS011;23615;51.506;7.678;2024-01-30T00:05:19;3.92;;;3.53;;
37777;SDS011;23615;51.506;7.678;2024-01-30T00:07:45;4.67;;;3.63;;
37777;SDS011;23615;51.506;7.678;2024-01-30T00:10:10;3.97;;;3.57;;
37777;SDS011;23615;51.506;7.678;2024-01-30T00:12:35;4.23;;;2.93;;
37777;SDS011;23615;51.506;7.678;2024-01-30T00:15:00;3.67;;;3.10;;
37777;SDS011;23615;51.506;7.678;2024-01-30T00:17:26;4.17;;;3.43;;
37777;SDS011;23615;51.506;7.678;2024-01-30T00:19:51;3.50;;;3.10;;
37777;SDS011;23615;51.506;7.678;2024-01-30T00:22:17;3.33;;;3.03;;
37777;SDS011;23615;51.506;7.678;2024-01-30T00:24:42;4.80;;;4.13;;
37777;SDS011;23615;51.506;7.678;2024-01-30T00:27:08;5.32;;;4.10;;
37777;SDS011;23615;51.506;7.678;2024-01-30T00:29:33;5.18;;;3.88;;
37777;SDS011;23615;51.506;7.678;2024-01-30T00:31:59;4.70;;;4.20;;
37777;SDS011;23615;51.506;7.678;2024-01-30T00:34:25;7.00;;;5.60;;
37777;SDS011;23615;51.506;7.678;2024-01-30T00:36:50;5.33;;;4.27;;
37777;SDS011;23615;51.506;7.678;2024-01-30T00:39:15;7.37;;;4.73;;
37777;SDS011;23615;51.506;7.678;2024-01-30T00:41:41;5.00;;;3.93;;
37777;SDS011;23615;51.506;7.678;2024-01-30T00:44:06;7.20;;;5.00;;
37777;SDS011;23615;51.506;7.678;2024-01-30T00:46:32;5.33;;;4.67;;
37777;SDS011;23615;51.506;7.678;2024-01-30T00:48:57;5.17;;;4.60;;
37777;SDS011;23615;51.506;7.678;2024-01-30T00:51:22;4.77;;;4.13;;
37777;SDS011;23615;51.506;7.678;2024-01-30T00:53:48;4.57;;;3.97;;
37777;SDS011;23615;51.506;7.678;2024-01-30T00:56:13;4.13;;;3.73;;
37777;SDS011;23615;51.506;7.678;2024-01-30T00:58:38;4.57;;;3.90;;
37777;SDS011;23615;51.506;7.678;2024-01-30T01:01:04;3.83;;;3.30;;
37777;SDS011;23615;51.506;7.678;2024-01-30T01:03:29;3.57;;;2.80;;
37777;SDS011;23615;51.506;7.678;2024-01-30T01:05:54;4.00;;;3.60;;
37777;SDS011;23615;51.506;7.678;2024-01-30T01:08:20;4.03;;;3.63;;
37777;SDS011;23615;51.506;7.678;2024-01-30T01:10:45;3.77;;;3.40;;
37777;SDS011;23615;51.506;7.678;2024-01-30T01:13:10;4.30;;;3.63;;
37777;SDS011;23615;51.506;7.678;2024-01-30T01:15:35;4.03;;;3.60;;
37777;SDS011;23615;51.506;7.678;2024-01-30T01:18:02;4.57;;;3.53;;
37777;SDS011;23615;51.506;7.678;2024-01-30T01:20:27;3.90;;;3.05;;
37777;SDS011;23615;51.506;7.678;2024-01-30T01:22:52;3.27;;;2.97;;
37777;SDS011;23615;51.506;7.678;2024-01-30T01:25:18;3.07;;;2.77;;
37777;SDS011;23615;51.506;7.678;2024-01-30T01:27:43;3.83;;;3.20;;
37777;SDS011;23615;51.506;7.678;2024-01-30T01:30:16;3.63;;;3.33;;
37777;SDS011;23615;51.506;7.678;2024-01-30T01:32:46;3.55;;;3.10;;
37777;SDS011;23615;51.506;7.678;2024-01-30T01:35:15;2.97;;;2.67;;
37777;SDS011;23615;51.506;7.678;2024-01-30T01:37:41;3.07;;;2.60;;
37777;SDS011;23615;51.506;7.678;2024-01-30T01:40:06;3.17;;;2.87;;
37777;SDS011;23615;51.506;7.678;2024-01-30T01:42:32;3.08;;;2.83;;
37777;SDS011;23615;51.506;7.678;2024-01-30T01:44:58;2.73;;;2.43;;
37777;SDS011;23615;51.506;7.678;2024-01-30T01:47:23;3.30;;;3.00;;
37777;SDS011;23615;51.506;7.678;2024-01-30T01:49:48;2.80;;;2.47;;
37777;SDS011;23615;51.506;7.678;2024-01-30T01:52:14;3.38;;;2.63;;
37777;SDS011;23615;51.506;7.678;2024-01-30T01:54:40;3.50;;;3.03;;
37777;SDS011;23615;51.506;7.678;2024-01-30T01:57:05;4.90;;;4.33;;
37777;SDS011;23615;51.506;7.678;2024-01-30T01:59:31;3.90;;;3.50;;
37777;SDS011;23615;51.506;7.678;2024-01-30T02:01:57;7.00;;;5.03;;
37777;SDS011;23615;51.506;7.678;2024-01-30T02:04:22;5.13;;;4.05;;
37777;SDS011;23615;51.506;7.678;2024-01-30T02:06:48;4.90;;;4.30;;
37777;SDS011;23615;51.506;7.678;2024-01-30T02:09:13;5.45;;;3.90;;
37777;SDS011;23615;51.506;7.678;2024-01-30T02:11:38;4.73;;;4.30;;
37777;SDS011;23615;51.506;7.678;2024-01-30T02:14:05;5.00;;;3.65;;
37777;SDS011;23615;51.506;7.678;2024-01-30T02:16:31;4.30;;;3.75;;
37777;SDS011;23615;51.506;7.678;2024-01-30T02:18:57;5.65;;;4.28;;
37777;SDS011;23615;51.506;7.678;2024-01-30T02:21:22;6.07;;;4.30;;
37777;SDS011;23615;51.506;7.678;2024-01-30T02:23:47;4.40;;;3.43;;
37777;SDS011;23615;51.506;7.678;2024-01-30T02:26:13;4.50;;;3.93;;
37777;SDS011;23615;51.506;7.678;2024-01-30T02:28:39;3.60;;;3.27;;
37777;SDS011;23615;51.506;7.678;2024-01-30T02:31:04;5.20;;;4.70;;
37777;SDS011;23615;51.506;7.678;2024-01-30T02:33:30;5.37;;;4.50;;
37777;SDS011;23615;51.506;7.678;2024-01-30T02:35:55;6.83;;;5.27;;
37777;SDS011;23615;51.506;7.678;2024-01-30T02:38:20;7.20;;;5.57;;
37777;SDS011;23615;51.506;7.678;2024-01-30T02:40:46;5.77;;;5.13;;
37777;SDS011;23615;51.506;7.678;2024-01-30T02:43:11;5.70;;;5.10;;
37777;SDS011;23615;51.506;7.678;2024-01-30T02:45:37;6.53;;;4.87;;
37777;SDS011;23615;51.506;7.678;2024-01-30T02:48:02;9.50;;;6.10;;
37777;SDS011;23615;51.506;7.678;2024-01-30T02:50:27;8.10;;;5.97;;
37777;SDS011;23615;51.506;7.678;2024-01-30T02:52:53;5.83;;;5.23;;
37777;SDS011;23615;51.506;7.678;2024-01-30T02:55:18;7.38;;;5.88;;
37777;SDS011;23615;51.506;7.678;2024-01-30T02:57:43;5.97;;;5.37;;
37777;SDS011;23615;51.506;7.678;2024-01-30T03:00:09;5.90;;;4.67;;
37777;SDS011;23615;51.506;7.678;2024-01-30T03:02:35;8.35;;;5.65;;
37777;SDS011;23615;51.506;7.678;2024-01-30T03:05:01;5.40;;;4.90;;
37777;SDS011;23615;51.506;7.678;2024-01-30T03:07:26;4.37;;;3.97;;
37777;SDS011;23615;51.506;7.678;2024-01-30T03:09:51;8.50;;;5.60;;
37777;SDS011;23615;51.506;7.678;2024-01-30T03:12:17;5.88;;;4.72;;
37777;SDS011;23615;51.506;7.678;2024-01-30T03:14:42;5.77;;;5.03;;
37777;SDS011;23615;51.506;7.678;2024-01-30T03:17:10;8.35;;;5.43;;
37777;SDS011;23615;51.506;7.678;2024-01-30T03:19:35;6.13;;;4.50;;
37777;SDS011;23615;51.506;7.678;2024-01-30T03:22:00;6.83;;;4.23;;
37777;SDS011;23615;51.506;7.678;2024-01-30T03:24:25;6.63;;;5.30;;
37777;SDS011;23615;51.506;7.678;2024-01-30T03:26:51;6.63;;;5.23;;
37777;SDS011;23615;51.506;7.678;2024-01-30T03:29:16;6.97;;;5.20;;
37777;SDS011;23615;51.506;7.678;2024-01-30T03:31:41;6.07;;;4.70;;
37777;SDS011;23615;51.506;7.678;2024-01-30T03:34:07;4.57;;;4.03;;
37777;SDS011;23615;51.506;7.678;2024-01-30T03:36:32;8.17;;;5.07;;
37777;SDS011;23615;51.506;7.678;2024-01-30T03:38:59;5.97;;;5.13;;
37777;SDS011;23615;51.506;7.678;2024-01-30T03:41:24;5.37;;;4.53;;
37777;SDS011;23615;51.506;7.678;2024-01-30T03:43:50;8.60;;;4.50;;
37777;SDS011;23615;51.506;7.678;2024-01-30T03:46:15;6.30;;;4.80;;
37777;SDS011;23615;51.506;7.678;2024-01-30T03:48:40;6.63;;;4.40;;
37777;SDS011;23615;51.506;7.678;2024-01-30T03:51:06;4.20;;;3.70;;
37777;SDS011;23615;51.506;7.678;2024-01-30T03:53:31;7.37;;;5.23;;
37777;SDS011;23615;51.506;7.678;2024-01-30T03:55:56;5.70;;;5.00;;
37777;SDS011;23615;51.506;7.678;2024-01-30T03:58:22;4.73;;;4.23;;
37777;SDS011;23615;51.506;7.678;2024-01-30T04:00:47;5.13;;;4.23;;
37777;SDS011;23615;51.506;7.678;2024-01-30T04:03:12;4.80;;;4.23;;
37777;SDS011;23615;51.506;7.678;2024-01-30T04:05:39;4.78;;;4.05;;
37777;SDS011;23615;51.506;7.678;2024-01-30T04:08:05;3.50;;;3.20;;
37777;SDS011;23615;51.506;7.678;2024-01-30T04:10:30;7.93;;;4.72;;
37777;SDS011;23615;51.506;7.678;2024-01-30T04:12:55;5.97;;;4.67;;
37777;SDS011;23615;51.506;7.678;2024-01-30T04:15:21;6.00;;;4.77;;
37777;SDS011;23615;51.506;7.678;2024-01-30T04:17:46;6.50;;;4.87;;
37777;SDS011;23615;51.506;7.678;2024-01-30T04:20:13;7.63;;;5.00;;
37777;SDS011;23615;51.506;7.678;2024-01-30T04:22:40;4.22;;;3.80;;
37777;SDS011;23615;51.506;7.678;2024-01-30T04:25:06;4.05;;;3.60;;
37777;SDS011;23615;51.506;7.678;2024-01-30T04:27:32;2.90;;;2.60;;
37777;SDS011;23615;51.506;7.678;2024-01-30T04:29:57;3.77;;;3.20;;
37777;SDS011;23615;51.506;7.678;2024-01-30T04:32:22;3.53;;;2.60;;
37777;SDS011;23615;51.506;7.678;2024-01-30T04:34:47;3.97;;;3.23;;
37777;SDS011;23615;51.506;7.678;2024-01-30T04:37:13;5.03;;;4.17;;
37777;SDS011;23615;51.506;7.678;2024-01-30T04:39:38;6.77;;;4.60;;
37777;SDS011;23615;51.506;7.678;2024-01-30T04:42:03;4.90;;;3.73;;
37777;SDS011;23615;51.506;7.678;2024-01-30T04:44:29;7.45;;;4.80;;
37777;SDS011;23615;51.506;7.678;2024-01-30T04:46:55;4.70;;;3.47;;
37777;SDS011;23615;51.506;7.678;2024-01-30T04:49:23;4.05;;;3.25;;
37777;SDS011;23615;51.506;7.678;2024-01-30T04:51:49;8.52;;;5.20;;
37777;SDS011;23615;51.506;7.678;2024-01-30T04:54:14;6.67;;;3.90;;
37777;SDS011;23615;51.506;7.678;2024-01-30T04:56:39;3.63;;;3.33;;
37777;SDS011;23615;51.506;7.678;2024-01-30T04:59:05;3.93;;;3.43;;
37777;SDS011;23615;51.506;7.678;2024-01-30T05:01:30;3.77;;;3.43;;
37777;SDS011;23615;51.506;7.678;2024-01-30T05:03:55;3.15;;;2.85;;
37777;SDS011;23615;51.506;7.678;2024-01-30T05:06:24;3.93;;;3.03;;
37777;SDS011;23615;51.506;7.678;2024-01-30T05:08:52;3.45;;;2.90;;
37777;SDS011;23615;51.506;7.678;2024-01-30T05:11:18;2.87;;;2.53;;
37777;SDS011;23615;51.506;7.678;2024-01-30T05:13:43;3.27;;;2.97;;
37777;SDS011;23615;51.506;7.678;2024-01-30T05:16:08;4.30;;;3.90;;
37777;SDS011;23615;51.506;7.678;2024-01-30T05:18:34;4.22;;;3.83;;
37777;SDS011;23615;51.506;7.678;2024-01-30T05:20:59;3.73;;;3.33;;
37777;SDS011;23615;51.506;7.678;2024-01-30T05:23:24;3.37;;;3.07;;
37777;SDS011;23615;51.506;7.678;2024-01-30T05:25:50;3.50;;;3.03;;
37777;SDS011;23615;51.506;7.678;2024-01-30T05:28:15;2.50;;;2.30;;
37777;SDS011;23615;51.506;7.678;2024-01-30T05:30:40;4.60;;;2.70;;
37777;SDS011;23615;51.506;7.678;2024-01-30T05:33:06;2.90;;;2.70;;
37777;SDS011;23615;51.506;7.678;2024-01-30T05:35:31;4.22;;;3.65;;
37777;SDS011;23615;51.506;7.678;2024-01-30T05:37:56;4.30;;;2.88;;
37777;SDS011;23615;51.506;7.678;2024-01-30T05:40:22;4.67;;;3.37;;
37777;SDS011;23615;51.506;7.678;2024-01-30T05:42:47;2.87;;;2.67;;
37777;SDS011;23615;51.506;7.678;2024-01-30T05:45:13;3.40;;;2.50;;
37777;SDS011;23615;51.506;7.678;2024-01-30T05:47:38;2.73;;;2.37;;
37777;SDS011;23615;51.506;7.678;2024-01-30T05:50:04;3.53;;;2.85;;
37777;SDS011;23615;51.506;7.678;2024-01-30T05:52:30;4.47;;;2.70;;
37777;SDS011;23615;51.506;7.678;2024-01-30T05:54:55;3.50;;;2.90;;
37777;SDS011;23615;51.506;7.678;2024-01-30T05:57:21;3.43;;;2.57;;
37777;SDS011;23615;51.506;7.678;2024-01-30T05:59:46;3.27;;;2.33;;
37777;SDS011;23615;51.506;7.678;2024-01-30T06:02:13;3.70;;;2.78;;
37777;SDS011;23615;51.506;7.678;2024-01-30T06:04:38;4.33;;;3.33;;
37777;SDS011;23615;51.506;7.678;2024-01-30T06:07:04;4.07;;;3.33;;
37777;SDS011;23615;51.506;7.678;2024-01-30T06:09:31;3.95;;;3.15;;
37777;SDS011;23615;51.506;7.678;2024-01-30T06:11:57;3.07;;;2.77;;
37777;SDS011;23615;51.506;7.678;2024-01-30T06:14:22;4.07;;;3.33;;
37777;SDS011;23615;51.506;7.678;2024-01-30T06:16:48;3.57;;;3.03;;
37777;SDS011;23615;51.506;7.678;2024-01-30T06:19:13;4.27;;;3.63;;
37777;SDS011;23615;51.506;7.678;2024-01-30T06:21:38;4.97;;;3.63;;
37777;SDS011;23615;51.506;7.678;2024-01-30T06:24:04;5.60;;;3.67;;
37777;SDS011;23615;51.506;7.678;2024-01-30T06:26:30;4.18;;;3.60;;
37777;SDS011;23615;51.506;7.678;2024-01-30T06:28:55;6.18;;;4.03;;
37777;SDS011;23615;51.506;7.678;2024-01-30T06:31:20;3.75;;;3.17;;
37777;SDS011;23615;51.506;7.678;2024-01-30T06:33:46;5.65;;;4.03;;
37777;SDS011;23615;51.506;7.678;2024-01-30T06:36:12;3.53;;;3.23;;
37777;SDS011;23615;51.506;7.678;2024-01-30T06:38:37;4.23;;;3.40;;
37777;SDS011;23615;51.506;7.678;2024-01-30T06:41:03;4.30;;;3.90;;
37777;SDS011;23615;51.506;7.678;2024-01-30T06:43:28;5.97;;;4.20;;
37777;SDS011;23615;51.506;7.678;2024-01-30T06:45:54;5.20;;;4.70;;
37777;SDS011;23615;51.506;7.678;2024-01-30T06:48:19;4.80;;;4.00;;
37777;SDS011;23615;51.506;7.678;2024-01-30T06:50:44;3.63;;;3.20;;
37777;SDS011;23615;51.506;7.678;2024-01-30T06:53:10;5.13;;;4.10;;
37777;SDS011;23615;51.506;7.678;2024-01-30T06:55:36;6.63;;;4.77;;
37777;SDS011;23615;51.506;7.678;2024-01-30T06:58:01;6.47;;;4.83;;
37777;SDS011;23615;51.506;7.678;2024-01-30T07:00:26;7.17;;;4.80;;
37777;SDS011;23615;51.506;7.678;2024-01-30T07:02:51;6.60;;;4.60;;
37777;SDS011;23615;51.506;7.678;2024-01-30T07:05:17;4.83;;;3.83;;
37777;SDS011;23615;51.506;7.678;2024-01-30T07:07:42;4.93;;;4.10;;
37777;SDS011;23615;51.506;7.678;2024-01-30T07:10:08;4.43;;;3.50;;
37777;SDS011;23615;51.506;7.678;2024-01-30T07:12:33;5.43;;;3.50;;
37777;SDS011;23615;51.506;7.678;2024-01-30T07:14:58;4.40;;;3.40;;
37777;SDS011;23615;51.506;7.678;2024-01-30T07:17:24;4.47;;;3.78;;
37777;SDS011;23615;51.506;7.678;2024-01-30T07:19:50;6.23;;;4.00;;
37777;SDS011;23615;51.506;7.678;2024-01-30T07:22:15;4.00;;;3.20;;
37777;SDS011;23615;51.506;7.678;2024-01-30T07:24:43;4.47;;;3.33;;
37777;SDS011;23615;51.506;7.678;2024-01-30T07:27:14;3.47;;;2.72;;
37777;SDS011;23615;51.506;7.678;2024-01-30T07:29:40;3.63;;;2.83;;
37777;SDS011;23615;51.506;7.678;2024-01-30T07:32:05;3.63;;;3.10;;
37777;SDS011;23615;51.506;7.678;2024-01-30T07:34:30;3.60;;;2.90;;
37777;SDS011;23615;51.506;7.678;2024-01-30T07:36:56;5.30;;;3.40;;
37777;SDS011;23615;51.506;7.678;2024-01-30T07:39:21;4.13;;;2.53;;
37777;SDS011;23615;51.506;7.678;2024-01-30T07:41:47;3.77;;;2.60;;
37777;SDS011;23615;51.506;7.678;2024-01-30T07:44:12;4.07;;;2.97;;
37777;SDS011;23615;51.506;7.678;2024-01-30T07:46:37;3.83;;;3.03;;
37777;SDS011;23615;51.506;7.678;2024-01-30T07:49:03;3.50;;;3.10;;
37777;SDS011;23615;51.506;7.678;2024-01-30T07:51:28;6.95;;;3.88;;
37777;SDS011;23615;51.506;7.678;2024-01-30T07:53:54;5.43;;;3.47;;
37777;SDS011;23615;51.506;7.678;2024-01-30T07:56:20;7.05;;;3.95;;
37777;SDS011;23615;51.506;7.678;2024-01-30T07:58:45;5.37;;;4.10;;
37777;SDS011;23615;51.506;7.678;2024-01-30T08:01:11;6.28;;;4.03;;
37777;SDS011;23615;51.506;7.678;2024-01-30T08:03:36;6.37;;;3.77;;
37777;SDS011;23615;51.506;7.678;2024-01-30T08:06:02;5.22;;;3.78;;
37777;SDS011;23615;51.506;7.678;2024-01-30T08:08:28;4.80;;;3.75;;
37777;SDS011;23615;51.506;7.678;2024-01-30T08:10:53;6.60;;;4.20;;
37777;SDS011;23615;51.506;7.678;2024-01-30T08:13:18;4.87;;;3.70;;
37777;SDS011;23615;51.506;7.678;2024-01-30T08:15:44;4.17;;;3.53;;
37777;SDS011;23615;51.506;7.678;2024-01-30T08:18:09;3.53;;;3.23;;
37777;SDS011;23615;51.506;7.678;2024-01-30T08:20:34;3.72;;;2.85;;
37777;SDS011;23615;51.506;7.678;2024-01-30T08:23:00;4.10;;;2.78;;
37777;SDS011;23615;51.506;7.678;2024-01-30T08:25:25;4.05;;;3.05;;
37777;SDS011;23615;51.506;7.678;2024-01-30T08:27:51;3.42;;;2.88;;
37777;SDS011;23615;51.506;7.678;2024-01-30T08:30:16;3.78;;;2.70;;
37777;SDS011;23615;51.506;7.678;2024-01-30T08:32:42;3.90;;;2.53;;
37777;SDS011;23615;51.506;7.678;2024-01-30T08:35:07;3.67;;;3.37;;
37777;SDS011;23615;51.506;7.678;2024-01-30T08:37:33;5.55;;;3.50;;
37777;SDS011;23615;51.506;7.678;2024-01-30T08:39:59;2.50;;;2.20;;
37777;SDS011;23615;51.506;7.678;2024-01-30T08:42:24;3.17;;;2.88;;
37777;SDS011;23615;51.506;7.678;2024-01-30T08:44:50;2.22;;;2.00;;
37777;SDS011;23615;51.506;7.678;2024-01-30T08:47:17;2.47;;;2.28;;
37777;SDS011;23615;51.506;7.678;2024-01-30T08:49:43;2.35;;;2.15;;
37777;SDS011;23615;51.506;7.678;2024-01-30T08:52:09;4.63;;;3.20;;
37777;SDS011;23615;51.506;7.678;2024-01-30T08:54:35;2.47;;;1.80;;
37777;SDS011;23615;51.506;7.678;2024-01-30T08:57:00;4.22;;;2.80;;
37777;SDS011;23615;51.506;7.678;2024-01-30T08:59:26;5.75;;;3.65;;
37777;SDS011;23615;51.506;7.678;2024-01-30T09:01:51;5.37;;;3.90;;
37777;SDS011;23615;51.506;7.678;2024-01-30T09:04:20;5.60;;;4.10;;
37777;SDS011;23615;51.506;7.678;2024-01-30T09:06:45;6.22;;;4.00;;
37777;SDS011;23615;51.506;7.678;2024-01-30T09:09:11;5.00;;;4.07;;
37777;SDS011;23615;51.506;7.678;2024-01-30T09:11:36;4.93;;;3.50;;
37777;SDS011;23615;51.506;7.678;2024-01-30T09:14:02;3.83;;;3.42;;
37777;SDS011;23615;51.506;7.678;2024-01-30T09:16:27;4.13;;;3.72;;
37777;SDS011;23615;51.506;7.678;2024-01-30T09:18:53;6.07;;;4.40;;
37777;SDS011;23615;51.506;7.678;2024-01-30T09:21:18;5.20;;;4.20;;
37777;SDS011;23615;51.506;7.678;2024-01-30T09:23:44;5.77;;;4.13;;
37777;SDS011;23615;51.506;7.678;2024-01-30T09:26:09;3.70;;;3.17;;
37777;SDS011;23615;51.506;7.678;2024-01-30T09:28:35;5.17;;;3.93;;
37777;SDS011;23615;51.506;7.678;2024-01-30T09:31:00;4.93;;;3.53;;
37777;SDS011;23615;51.506;7.678;2024-01-30T09:33:26;5.10;;;3.80;;
37777;SDS011;23615;51.506;7.678;2024-01-30T09:35:51;4.20;;;2.83;;
37777;SDS011;23615;51.506;7.678;2024-01-30T09:38:16;6.77;;;3.37;;
37777;SDS011;23615;51.506;7.678;2024-01-30T09:40:42;4.00;;;3.17;;
37777;SDS011;23615;51.506;7.678;2024-01-30T09:43:07;5.93;;;3.22;;
37777;SDS011;23615;51.506;7.678;2024-01-30T09:45:33;5.03;;;3.57;;
37777;SDS011;23615;51.506;7.678;2024-01-30T09:47:59;4.70;;;3.47;;
37777;SDS011;23615;51.506;7.678;2024-01-30T09:50:25;4.50;;;3.43;;
37777;SDS011;23615;51.506;7.678;2024-01-30T09:52:51;4.50;;;2.85;;
37777;SDS011;23615;51.506;7.678;2024-01-30T09:55:20;4.35;;;2.90;;
37777;SDS011;23615;51.506;7.678;2024-01-30T09:57:45;5.95;;;3.50;;
37777;SDS011;23615;51.506;7.678;2024-01-30T10:00:11;5.63;;;3.33;;
37777;SDS011;23615;51.506;7.678;2024-01-30T10:02:38;4.47;;;3.73;;
37777;SDS011;23615;51.506;7.678;2024-01-30T10:05:04;6.00;;;3.65;;
37777;SDS011;23615;51.506;7.678;2024-01-30T10:07:30;5.23;;;3.40;;
37777;SDS011;23615;51.506;7.678;2024-01-30T10:09:55;4.38;;;3.08;;
37777;SDS011;23615;51.506;7.678;2024-01-30T10:12:21;4.05;;;3.03;;
37777;SDS011;23615;51.506;7.678;2024-01-30T10:14:47;3.97;;;2.97;;
37777;SDS011;23615;51.506;7.678;2024-01-30T10:17:12;3.63;;;3.10;;
37777;SDS011;23615;51.506;7.678;2024-01-30T10:19:38;5.27;;;3.17;;
37777;SDS011;23615;51.506;7.678;2024-01-30T10:22:05;5.35;;;3.10;;
37777;SDS011;23615;51.506;7.678;2024-01-30T10:24:30;4.73;;;3.30;;
37777;SDS011;23615;51.506;7.678;2024-01-30T10:26:56;4.43;;;3.22;;
37777;SDS011;23615;51.506;7.678;2024-01-30T10:29:21;4.10;;;2.87;;
37777;SDS011;23615;51.506;7.678;2024-01-30T10:34:28;4.97;;;3.45;;
37777;SDS011;23615;51.506;7.678;2024-01-30T10:36:57;4.57;;;3.50;;
37777;SDS011;23615;51.506;7.678;2024-01-30T10:39:37;5.53;;;3.83;;
37777;SDS011;23615;51.506;7.678;2024-01-30T10:42:04;5.30;;;3.25;;
37777;SDS011;23615;51.506;7.678;2024-01-30T10:44:34;3.65;;;3.22;;
37777;SDS011;23615;51.506;7.678;2024-01-30T10:47:06;5.97;;;3.70;;
37777;SDS011;23615;51.506;7.678;2024-01-30T10:49:35;5.63;;;3.40;;
37777;SDS011;23615;51.506;7.678;2024-01-30T10:52:01;4.38;;;3.38;;
37777;SDS011;23615;51.506;7.678;2024-01-30T10:54:30;4.63;;;3.40;;
37777;SDS011;23615;51.506;7.678;2024-01-30T10:56:57;5.03;;;3.65;;
37777;SDS011;23615;51.506;7.678;2024-01-30T10:59:26;5.53;;;3.20;;
37777;SDS011;23615;51.506;7.678;2024-01-30T11:01:53;4.25;;;3.03;;
37777;SDS011;23615;51.506;7.678;2024-01-30T11:04:18;3.93;;;3.00;;
37777;SDS011;23615;51.506;7.678;2024-01-30T11:06:44;4.90;;;3.40;;
37777;SDS011;23615;51.506;7.678;2024-01-30T11:09:12;4.30;;;2.90;;
37777;SDS011;23615;51.506;7.678;2024-01-30T11:11:50;5.35;;;3.30;;
37777;SDS011;23615;51.506;7.678;2024-01-30T11:14:22;5.60;;;3.17;;
37777;SDS011;23615;51.506;7.678;2024-01-30T11:16:48;7.93;;;3.67;;
37777;SDS011;23615;51.506;7.678;2024-01-30T11:19:14;6.57;;;3.50;;
37777;SDS011;23615;51.506;7.678;2024-01-30T11:21:42;5.43;;;3.33;;
37777;SDS011;23615;51.506;7.678;2024-01-30T11:24:08;4.80;;;3.92;;
37777;SDS011;23615;51.506;7.678;2024-01-30T11:26:33;4.37;;;3.70;;
37777;SDS011;23615;51.506;7.678;2024-01-30T11:28:59;4.75;;;3.10;;
37777;SDS011;23615;51.506;7.678;2024-01-30T11:31:29;5.18;;;2.92;;
37777;SDS011;23615;51.506;7.678;2024-01-30T11:33:56;5.27;;;3.40;;
37777;SDS011;23615;51.506;7.678;2024-01-30T11:36:23;6.20;;;3.13;;
37777;SDS011;23615;51.506;7.678;2024-01-30T11:38:50;3.83;;;3.10;;
37777;SDS011;23615;51.506;7.678;2024-01-30T11:41:16;4.80;;;3.17;;
37777;SDS011;23615;51.506;7.678;2024-01-30T11:43:41;5.15;;;3.20;;
37777;SDS011;23615;51.506;7.678;2024-01-30T11:46:06;5.77;;;3.63;;
37777;SDS011;23615;51.506;7.678;2024-01-30T11:48:32;5.32;;;3.53;;
37777;SDS011;23615;51.506;7.678;2024-01-30T11:50:57;6.83;;;3.60;;
37777;SDS011;23615;51.506;7.678;2024-01-30T11:53:23;6.60;;;3.00;;
37777;SDS011;23615;51.506;7.678;2024-01-30T11:55:51;7.40;;;3.33;;
37777;SDS011;23615;51.506;7.678;2024-01-30T11:58:17;6.47;;;3.42;;
37777;SDS011;23615;51.506;7.678;2024-01-30T12:00:43;7.07;;;3.70;;
37777;SDS011;23615;51.506;7.678;2024-01-30T12:03:17;8.30;;;3.55;;
37777;SDS011;23615;51.506;7.678;2024-01-30T12:05:42;4.77;;;3.40;;
37777;SDS011;23615;51.506;7.678;2024-01-30T12:08:13;8.97;;;3.70;;
37777;SDS011;23615;51.506;7.678;2024-01-30T12:10:40;5.97;;;3.28;;
37777;SDS011;23615;51.506;7.678;2024-01-30T12:13:06;7.13;;;3.00;;
37777;SDS011;23615;51.506;7.678;2024-01-30T12:15:31;9.27;;;3.60;;
37777;SDS011;23615;51.506;7.678;2024-01-30T12:18:06;8.03;;;3.40;;
37777;SDS011;23615;51.506;7.678;2024-01-30T12:20:32;6.30;;;3.40;;
37777;SDS011;23615;51.506;7.678;2024-01-30T12:22:57;6.17;;;3.80;;
37777;SDS011;23615;51.506;7.678;2024-01-30T12:25:23;7.00;;;3.30;;
37777;SDS011;23615;51.506;7.678;2024-01-30T12:27:52;6.38;;;3.50;;
37777;SDS011;23615;51.506;7.678;2024-01-30T12:30:18;5.47;;;3.10;;
37777;SDS011;23615;51.506;7.678;2024-01-30T12:32:45;8.45;;;3.40;;
37777;SDS011;23615;51.506;7.678;2024-01-30T12:35:14;4.88;;;3.60;;
37777;SDS011;23615;51.506;7.678;2024-01-30T12:37:41;5.78;;;3.15;;
37777;SDS011;23615;51.506;7.678;2024-01-30T12:40:08;7.32;;;3.10;;
37777;SDS011;23615;51.506;7.678;2024-01-30T12:42:34;4.63;;;2.90;;
37777;SDS011;23615;51.506;7.678;2024-01-30T12:45:01;7.25;;;3.08;;
37777;SDS011;23615;51.506;7.678;2024-01-30T12:47:27;7.13;;;3.50;;
37777;SDS011;23615;51.506;7.678;2024-01-30T12:49:52;7.00;;;3.80;;
37777;SDS011;23615;51.506;7.678;2024-01-30T12:52:18;8.23;;;3.50;;
37777;SDS011;23615;51.506;7.678;2024-01-30T12:54:44;8.85;;;4.13;;
37777;SDS011;23615;51.506;7.678;2024-01-30T12:57:10;7.50;;;3.57;;
37777;SDS011;23615;51.506;7.678;2024-01-30T12:59:35;6.30;;;3.93;;
37777;SDS011;23615;51.506;7.678;2024-01-30T13:02:01;8.57;;;3.33;;
37777;SDS011;23615;51.506;7.678;2024-01-30T13:04:28;5.50;;;3.58;;
37777;SDS011;23615;51.506;7.678;2024-01-30T13:06:53;8.17;;;3.60;;
37777;SDS011;23615;51.506;7.678;2024-01-30T13:09:19;6.57;;;3.37;;
37777;SDS011;23615;51.506;7.678;2024-01-30T13:11:44;7.23;;;3.47;;
37777;SDS011;23615;51.506;7.678;2024-01-30T13:14:10;6.80;;;3.73;;
37777;SDS011;23615;51.506;7.678;2024-01-30T13:16:35;6.88;;;3.25;;
37777;SDS011;23615;51.506;7.678;2024-01-30T13:19:00;7.33;;;4.00;;
37777;SDS011;23615;51.506;7.678;2024-01-30T13:21:27;10.68;;;3.90;;
37777;SDS011;23615;51.506;7.678;2024-01-30T13:23:52;9.00;;;3.80;;
37777;SDS011;23615;51.506;7.678;2024-01-30T13:26:19;9.50;;;3.90;;
37777;SDS011;23615;51.506;7.678;2024-01-30T13:28:44;6.87;;;3.67;;
37777;SDS011;23615;51.506;7.678;2024-01-30T13:31:10;8.43;;;4.50;;
37777;SDS011;23615;51.506;7.678;2024-01-30T13:33:35;7.30;;;4.37;;
37777;SDS011;23615;51.506;7.678;2024-01-30T13:36:00;8.37;;;3.90;;
37777;SDS011;23615;51.506;7.678;2024-01-30T13:38:26;8.88;;;4.30;;
37777;SDS011;23615;51.506;7.678;2024-01-30T13:40:51;8.52;;;4.32;;
37777;SDS011;23615;51.506;7.678;2024-01-30T13:43:17;10.10;;;4.23;;
37777;SDS011;23615;51.506;7.678;2024-01-30T13:45:42;7.88;;;4.18;;
37777;SDS011;23615;51.506;7.678;2024-01-30T13:48:08;6.43;;;3.92;;
37777;SDS011;23615;51.506;7.678;2024-01-30T13:50:33;8.18;;;4.30;;
37777;SDS011;23615;51.506;7.678;2024-01-30T13:52:59;8.90;;;5.03;;
37777;SDS011;23615;51.506;7.678;2024-01-30T13:55:24;9.33;;;4.33;;
37777;SDS011;23615;51.506;7.678;2024-01-30T13:57:50;9.43;;;4.70;;
37777;SDS011;23615;51.506;7.678;2024-01-30T14:00:15;8.30;;;4.73;;
37777;SDS011;23615;51.506;7.678;2024-01-30T14:02:41;8.30;;;4.37;;
37777;SDS011;23615;51.506;7.678;2024-01-30T14:05:07;7.37;;;4.33;;
37777;SDS011;23615;51.506;7.678;2024-01-30T14:07:32;6.93;;;4.72;;
37777;SDS011;23615;51.506;7.678;2024-01-30T14:09:58;8.23;;;5.00;;
37777;SDS011;23615;51.506;7.678;2024-01-30T14:12:23;7.63;;;5.10;;
37777;SDS011;23615;51.506;7.678;2024-01-30T14:14:48;8.80;;;5.00;;
37777;SDS011;23615;51.506;7.678;2024-01-30T14:17:14;7.60;;;4.47;;
37777;SDS011;23615;51.506;7.678;2024-01-30T14:19:39;7.53;;;4.87;;
37777;SDS011;23615;51.506;7.678;2024-01-30T14:22:04;7.93;;;4.80;;
37777;SDS011;23615;51.506;7.678;2024-01-30T14:24:29;11.83;;;4.80;;
37777;SDS011;23615;51.506;7.678;2024-01-30T14:26:55;6.37;;;4.13;;
37777;SDS011;23615;51.506;7.678;2024-01-30T14:29:20;9.93;;;5.30;;
37777;SDS011;23615;51.506;7.678;2024-01-30T14:31:45;7.43;;;4.83;;
37777;SDS011;23615;51.506;7.678;2024-01-30T14:34:11;6.97;;;5.00;;
37777;SDS011;23615;51.506;7.678;2024-01-30T14:36:37;8.13;;;4.50;;
37777;SDS011;23615;51.506;7.678;2024-01-30T14:39:03;7.93;;;4.30;;
37777;SDS011;23615;51.506;7.678;2024-01-30T14:41:28;5.57;;;4.90;;